Time;durP1;ratioP1;P1;durP2;ratioP2;P2;SDS_P1;SDS_P2;PMS_P1;PMS_P2;Temp;Humidity;BMP_temperature;BMP_pressure;BME280_temperature;BME280_humidity;BME280_pressure;Samples;Min_cycle;Max_cycle;Signal;HPM_P1;HPM_P2
2021/05/12 00:02:15;;;;;;;1.88;0.80;;;;;;;9.59;79.16;99609.28;6196246;23;20019;-74
2021/05/12 00:04:41;;;;;;;9.70;1.17;;;;;;;9.58;79.00;99604.91;6219938;23;20008;-74
2021/05/12 00:07:06;;;;;;;7.72;1.17;;;;;;;9.59;79.08;99598.38;6255156;23;20008;-74
2021/05/12 00:09:32;;;;;;;2.65;1.13;;;;;;;9.63;79.48;99603.28;6230503;23;20035;-73
2021/05/12 00:11:57;;;;;;;9.35;1.48;;;;;;;9.64;79.27;99605.72;6252010;23;20004;-74
2021/05/12 00:14:23;;;;;;;9.60;1.50;;;;;;;9.63;79.05;99597.81;6247472;23;20421;-74
2021/05/12 00:16:48;;;;;;;11.02;0.98;;;;;;;9.64;79.43;99603.00;6247842;23;20008;-73
2021/05/12 00:19:18;;;;;;;6.97;1.65;;;;;;;9.68;79.13;99600.50;6218104;23;20008;-77
2021/05/12 00:22:13;;;;;;;1.45;0.73;;;;;;;9.65;79.92;99590.16;6223599;23;20079;-76
2021/05/12 00:24:41;;;;;;;3.22;0.68;;;;;;;9.65;79.33;99590.16;6249288;23;20007;-76
2021/05/12 00:27:07;;;;;;;7.05;0.70;;;;;;;9.71;79.40;99594.47;6199318;23;20020;-76
2021/05/12 00:29:33;;;;;;;6.57;1.05;;;;;;;9.73;79.59;99606.75;6219915;23;20445;-76
2021/05/12 00:32:01;;;;;;;4.93;2.70;;;;;;;9.70;80.40;99603.78;6247070;23;20054;-76
2021/05/12 00:34:27;;;;;;;4.03;1.30;;;;;;;9.68;79.93;99595.03;6217851;23;20012;-76
2021/05/12 00:37:01;;;;;;;3.88;1.08;;;;;;;9.69;80.11;99597.50;6245674;23;20481;-76
2021/05/12 00:39:44;;;;;;;;;;;;;;;;;;;;;
2021/05/12 00:42:33;;;;;;;12.85;1.20;;;;;;;9.58;80.76;99583.09;6246879;23;20082;-76
2021/05/12 00:44:59;;;;;;;9.20;1.60;;;;;;;9.48;79.92;99566.75;6214544;23;20024;-74
2021/05/12 00:48:03;;;;;;;8.93;1.60;;;;;;;9.57;80.07;99584.19;6256980;23;20000;-74
2021/05/12 00:50:59;;;;;;;;;;;;;;;;;;;;;
2021/05/12 00:56:34;;;;;;;3.95;0.95;;;;;;;9.63;79.75;99593.16;6226700;23;20326;-75
2021/05/12 00:59:11;;;;;;;;;;;;;;;;;;;;;
2021/05/12 01:01:44;;;;;;;6.63;1.52;;;;;;;9.53;80.92;99594.00;6238635;23;20414;-74
2021/05/12 01:04:17;;;;;;;8.55;1.20;;;;;;;9.40;80.90;99572.78;6219037;23;20008;-74
2021/05/12 01:06:43;;;;;;;10.07;1.63;;;;;;;9.64;81.08;99607.63;6245962;23;20028;-73
2021/05/12 01:09:28;;;;;;;6.20;1.42;;;;;;;9.48;81.28;99599.50;6221966;23;20410;-76
2021/05/12 01:11:53;;;;;;;4.32;0.60;;;;;;;9.31;82.29;99572.53;6203793;23;20011;-74
2021/05/12 01:14:29;;;;;;;8.60;1.30;;;;;;;9.31;82.35;99579.91;6233575;23;20007;-77
2021/05/12 01:17:14;;;;;;;;;;;;;;;;;;;;;
2021/05/12 01:19:43;;;;;;;9.32;0.80;;;;;;;9.35;83.47;99600.09;6251446;23;20083;-79
2021/05/12 01:22:10;;;;;;;8.68;1.15;;;;;;;9.16;83.28;99573.41;6224810;23;20010;-80
2021/05/12 01:24:44;;;;;;;6.28;1.30;;;;;;;9.26;83.39;99600.66;6225156;23;20008;-81
2021/05/12 01:27:13;;;;;;;3.67;0.65;;;;;;;9.25;83.73;99588.09;6220639;23;20020;-77
2021/05/12 01:29:38;;;;;;;2.42;0.70;;;;;;;9.17;84.16;99583.25;6195486;23;20028;-76
2021/05/12 01:32:34;;;;;;;9.27;1.17;;;;;;;9.31;84.61;99618.13;6210551;23;20055;-77
2021/05/12 01:35:07;;;;;;;4.57;1.25;;;;;;;9.26;83.97;99608.03;6227122;23;20000;-76
2021/05/12 01:37:35;;;;;;;9.80;1.10;;;;;;;9.30;84.57;99609.13;6250867;23;20000;-78
2021/05/12 01:40:12;;;;;;;15.43;2.00;;;;;;;9.22;84.38;99594.13;6224722;23;20015;-77
2021/05/12 01:42:37;;;;;;;6.38;0.88;;;;;;;9.15;84.89;99599.06;6225292;23;20014;-76
2021/05/12 01:45:09;;;;;;;6.32;1.25;;;;;;;9.24;84.21;99602.03;6250617;23;20004;-76
2021/05/12 01:47:37;;;;;;;15.15;1.45;;;;;;;9.25;84.77;99603.66;6224764;23;20008;-76
2021/05/12 01:50:13;;;;;;;7.93;1.40;;;;;;;9.22;85.10;99599.59;6252518;23;20002;-77
2021/05/12 01:52:41;;;;;;;12.65;1.75;;;;;;;9.28;84.72;99616.75;6250535;23;20000;-78
2021/05/12 01:55:08;;;;;;;10.75;1.58;;;;;;;9.37;85.11;99617.00;6226939;23;20004;-78
2021/05/12 01:57:36;;;;;;;15.20;1.77;;;;;;;9.28;84.75;99613.22;6226581;23;20019;-78
2021/05/12 02:00:18;;;;;;;12.02;1.58;;;;;;;9.21;84.99;99591.69;6223683;23;20404;-78
2021/05/12 02:02:49;;;;;;;18.30;2.53;;;;;;;9.26;84.86;99611.56;6254575;23;20011;-77
2021/05/12 02:05:15;;;;;;;12.90;2.17;;;;;;;9.25;85.09;99609.94;6199349;23;20008;-78
2021/05/12 02:07:40;;;;;;;13.07;2.08;;;;;;;9.22;85.23;99621.41;6252695;23;20047;-76
2021/05/12 02:10:07;;;;;;;5.53;1.10;;;;;;;9.12;84.71;99596.88;6223203;23;20019;-77
2021/05/12 02:12:32;;;;;;;11.05;1.73;;;;;;;9.26;85.05;99621.69;6260280;23;20042;-77
2021/05/12 02:15:00;;;;;;;8.35;1.40;;;;;;;9.22;85.19;99615.94;6219868;23;20000;-76
2021/05/12 02:17:26;;;;;;;8.70;1.77;;;;;;;9.21;85.27;99608.03;6199575;23;20431;-76
2021/05/12 02:19:51;;;;;;;9.70;2.25;;;;;;;9.30;85.29;99627.38;6248616;23;20015;-76
2021/05/12 02:22:17;;;;;;;10.85;1.60;;;;;;;9.31;85.31;99631.75;6220439;23;20015;-76
2021/05/12 02:24:42;;;;;;;12.23;1.77;;;;;;;9.26;85.03;99622.50;6255294;23;20008;-78
2021/05/12 02:27:10;;;;;;;11.68;1.92;;;;;;;9.22;85.49;99626.06;6221683;23;20017;-77
2021/05/12 02:29:36;;;;;;;10.85;1.60;;;;;;;9.20;84.86;99634.50;6213974;23;20005;-77
2021/05/12 02:32:04;;;;;;;11.13;2.05;;;;;;;9.14;85.25;99612.97;6186775;23;20011;-78
2021/05/12 02:34:29;;;;;;;13.75;1.85;;;;;;;9.22;85.73;99632.31;6214874;23;20439;-77
2021/05/12 02:36:55;;;;;;;3.22;1.13;;;;;;;9.17;85.07;99623.31;6212063;23;20004;-77
2021/05/12 02:39:22;;;;;;;9.57;1.92;;;;;;;9.07;85.29;99613.28;6208347;23;20004;-76
2021/05/12 02:41:52;;;;;;;16.63;1.88;;;;;;;9.05;85.23;99610.81;6212345;23;20004;-77
2021/05/12 02:44:17;;;;;;;11.48;1.30;;;;;;;9.14;85.44;99629.34;6214323;23;20013;-76
2021/05/12 02:46:46;;;;;;;9.98;1.45;;;;;;;9.05;85.37;99613.56;6213550;23;20005;-80
2021/05/12 02:49:37;;;;;;;16.48;1.95;;;;;;;9.08;85.27;99620.34;6217342;23;20001;-75
2021/05/12 02:52:43;;;;;;;;;;;;;;;;;;;;;
2021/05/12 02:59:11;;;;;;;6.57;1.20;;;;;;;9.19;84.85;99626.59;6122314;23;20010;-76
2021/05/12 03:01:44;;;;;;;11.70;1.40;;;;;;;8.99;84.57;99600.19;6089563;23;20041;-73
2021/05/12 03:15:19;;;;;;;;;;;;;;;;;;;;;
2021/05/12 03:22:27;;;;;;;6.65;1.15;;;;;;;9.13;84.52;99612.16;6009089;23;20018;-75
2021/05/12 03:32:57;;;;;;;11.80;1.50;;;;;;;8.83;84.79;99583.84;5842687;24;20028;-76
2021/05/12 03:46:42;;;;;;;8.75;1.48;;;;;;;8.96;84.67;99611.66;5742127;25;20100;-75
2021/05/12 03:57:42;;;;;;;;;;;;;;;;;;;;;
2021/05/12 04:00:05;;;;;;;18.75;2.97;;;;;;;8.84;84.53;99599.13;5950953;23;20009;-74
2021/05/12 04:05:53;;;;;;;14.05;1.75;;;;;;;8.84;84.62;99604.56;5986511;23;20012;-75
2021/05/12 04:08:50;;;;;;;6.70;1.90;;;;;;;8.94;84.21;99597.47;6027831;23;20006;-76
2021/05/12 04:12:03;;;;;;;6.47;2.60;;;;;;;8.96;83.80;99606.19;6037442;23;20003;-75
2021/05/12 04:14:29;;;;;;;23.85;1.67;;;;;;;8.90;84.13;99608.09;6042144;23;20050;-76
2021/05/12 04:16:54;;;;;;;8.90;2.80;;;;;;;8.84;83.62;99614.66;6070354;23;20350;-74
2021/05/12 04:19:35;;;;;;;22.60;2.10;;;;;;;8.90;83.76;99619.00;6058630;23;20029;-74
2021/05/12 04:22:03;;;;;;;10.50;1.92;;;;;;;8.83;84.48;99619.28;6188691;23;20001;-73
2021/05/12 04:24:30;;;;;;;15.45;2.35;;;;;;;8.81;84.68;99609.75;6164062;23;20352;-74
2021/05/12 04:27:02;;;;;;;11.50;1.88;;;;;;;8.89;84.64;99623.66;6186260;23;20393;-72
2021/05/12 04:29:28;;;;;;;18.08;1.95;;;;;;;8.91;84.15;99632.38;6209404;23;20036;-73
2021/05/12 04:31:54;;;;;;;9.77;1.67;;;;;;;8.92;84.53;99638.63;6172302;23;20015;-73
2021/05/12 04:34:19;;;;;;;5.93;2.17;;;;;;;8.88;84.62;99632.13;6195014;23;20102;-74
2021/05/12 04:36:45;;;;;;;8.50;1.35;;;;;;;8.85;84.30;99621.75;6219490;23;20035;-75
2021/05/12 04:39:10;;;;;;;4.05;1.20;;;;;;;9.02;84.21;99643.25;6211699;23;20012;-75
2021/05/12 04:41:38;;;;;;;10.32;1.95;;;;;;;8.98;83.61;99631.25;6193121;23;20009;-74
2021/05/12 04:44:17;;;;;;;3.85;0.80;;;;;;;8.88;83.47;99616.56;6217276;23;20111;-75
2021/05/12 04:46:58;;;;;;;13.73;1.88;;;;;;;8.82;83.87;99623.13;6214810;23;20053;-75
2021/05/12 04:49:33;;;;;;;12.20;1.48;;;;;;;8.82;83.50;99633.19;6220158;23;20017;-75
2021/05/12 04:52:19;;;;;;;;;;;;;;;;;;;;;
2021/05/12 04:54:45;;;;;;;10.15;2.42;;;;;;;8.68;83.23;99638.38;6221235;23;20032;-77
2021/05/12 04:58:20;;;;;;;;;;;;;;;;;;;;;
2021/05/12 05:00:46;;;;;;;11.55;1.48;;;;;;;8.66;83.59;99654.19;6126212;23;20093;-76
2021/05/12 05:03:12;;;;;;;9.23;1.45;;;;;;;8.57;83.33;99637.56;6105464;23;20041;-77
2021/05/12 05:05:40;;;;;;;4.47;1.70;;;;;;;8.65;83.91;99647.13;6179842;23;20009;-77
2021/05/12 05:08:05;;;;;;;3.10;1.25;;;;;;;8.66;83.62;99651.44;6221180;23;20005;-76
2021/05/12 05:10:43;;;;;;;;;;;;;;;;;;;;;
2021/05/12 05:13:11;;;;;;;5.93;1.95;;;;;;;8.52;83.27;99634.84;6223185;23;20027;-76
2021/05/12 05:15:37;;;;;;;12.23;1.90;;;;;;;8.51;83.59;99639.47;6218407;23;20012;-77
2021/05/12 05:18:12;;;;;;;7.30;1.55;;;;;;;8.60;83.14;99658.84;6219504;23;20080;-78
2021/05/12 05:20:42;;;;;;;10.95;2.05;;;;;;;8.52;83.45;99638.38;6215142;23;20013;-77
2021/05/12 05:23:08;;;;;;;17.10;1.77;;;;;;;8.57;83.88;99648.44;6222167;23;20485;-74
2021/05/12 05:25:33;;;;;;;8.40;1.75;;;;;;;8.59;83.32;99656.38;6165619;23;20008;-79
2021/05/12 05:27:59;;;;;;;6.70;1.60;;;;;;;8.62;84.13;99656.66;6222523;23;20042;-78
2021/05/12 05:30:35;;;;;;;8.90;1.73;;;;;;;8.53;83.32;99633.75;6225943;23;20004;-79
2021/05/12 05:33:09;;;;;;;8.10;1.25;;;;;;;8.53;82.97;99641.94;6224714;23;20042;-78
2021/05/12 05:43:53;;;;;;;7.95;1.88;;;;;;;8.83;83.78;99657.44;6130500;23;20038;-77
2021/05/12 05:46:19;;;;;;;5.80;1.83;;;;;;;8.80;83.13;99654.47;6053597;23;20056;-75
2021/05/12 05:48:51;;;;;;;12.13;1.70;;;;;;;8.73;83.48;99632.91;6133664;23;20013;-77
2021/05/12 05:51:17;;;;;;;23.75;2.10;;;;;;;8.83;83.09;99641.09;6220543;23;20030;-80
2021/05/12 05:53:52;;;;;;;11.50;2.05;;;;;;;8.85;83.07;99638.94;6209103;23;20000;-77
2021/05/12 05:56:20;;;;;;;6.25;1.63;;;;;;;8.91;82.62;99648.72;6251897;23;20000;-77
2021/05/12 05:58:46;;;;;;;6.72;1.55;;;;;;;8.96;82.99;99649.81;6254718;23;20034;-77
2021/05/12 06:01:11;;;;;;;17.80;1.95;;;;;;;9.00;83.26;99659.09;6231167;23;19996;-79
2021/05/12 06:03:57;;;;;;;20.25;1.85;;;;;;;8.94;82.92;99630.22;6219440;23;20040;-80
2021/05/12 06:06:22;;;;;;;17.60;2.70;;;;;;;9.08;82.91;99656.63;6227842;23;20072;-80
2021/05/12 06:08:53;;;;;;;16.65;2.45;;;;;;;9.08;83.48;99642.16;6252481;23;20028;-80
2021/05/12 06:11:35;;;;;;;11.10;1.92;;;;;;;9.18;82.92;99650.31;6221099;23;20008;-80
2021/05/12 06:14:11;;;;;;;7.90;1.35;;;;;;;9.34;83.48;99667.47;6246754;23;20000;-79
2021/05/12 06:16:39;;;;;;;17.40;2.58;;;;;;;9.37;83.02;99661.47;6226929;23;20338;-81
2021/05/12 06:19:14;;;;;;;17.45;2.25;;;;;;;9.46;82.88;99661.72;6228120;23;20011;-80
2021/05/12 06:22:03;;;;;;;;;;;;;;;;;;;;;
2021/05/12 06:24:38;;;;;;;7.60;1.33;;;;;;;9.63;82.41;99657.88;6230315;23;20046;-80
2021/05/12 06:27:05;;;;;;;12.68;2.53;;;;;;;9.56;81.22;99648.06;6251238;23;20006;-77
2021/05/12 06:29:44;;;;;;;5.25;1.58;;;;;;;9.61;81.91;99634.38;6249716;23;20016;-79
2021/05/12 06:32:22;;;;;;;;;;;;;;;;;;;;;
2021/05/12 06:34:48;;;;;;;5.57;1.40;;;;;;;9.91;81.51;99649.00;6224085;23;20032;-71
2021/05/12 06:37:14;;;;;;;17.65;2.13;;;;;;;10.06;80.96;99661.78;6248632;23;20012;-74
2021/05/12 06:39:39;;;;;;;12.07;2.30;;;;;;;10.02;80.98;99655.25;6220689;23;20008;-74
2021/05/12 06:42:05;;;;;;;14.90;2.25;;;;;;;10.18;80.48;99675.09;6223362;23;20335;-74
2021/05/12 06:44:37;;;;;;;15.05;2.55;;;;;;;10.23;80.43;99680.53;6219638;23;20004;-76
2021/05/12 06:47:03;;;;;;;6.18;1.85;;;;;;;10.39;79.95;99691.41;6221601;23;20008;-73
2021/05/12 06:49:30;;;;;;;11.18;2.55;;;;;;;10.58;80.24;99681.44;6248731;23;20442;-74
2021/05/12 06:51:56;;;;;;;8.02;1.63;;;;;;;10.90;78.99;99690.22;6224162;23;20026;-75
2021/05/12 06:54:22;;;;;;;14.68;2.05;;;;;;;11.19;78.42;99690.25;6224978;23;20079;-76
2021/05/12 06:56:47;;;;;;;12.10;1.85;;;;;;;11.42;78.10;99690.56;6223941;23;20012;-76
2021/05/12 06:59:13;;;;;;;21.40;3.95;;;;;;;11.45;76.31;99690.00;6224676;23;20014;-74
2021/05/12 07:01:38;;;;;;;10.48;2.05;;;;;;;11.46;75.18;99675.19;6249349;23;20004;-77
2021/05/12 07:04:04;;;;;;;10.05;1.90;;;;;;;11.57;75.28;99686.88;6200775;23;20019;-75
2021/05/12 07:06:30;;;;;;;19.88;3.22;;;;;;;11.63;73.73;99680.22;6250105;23;20031;-76
2021/05/12 07:08:55;;;;;;;11.10;2.00;;;;;;;11.81;73.41;99682.19;6193011;23;20016;-72
2021/05/12 07:11:21;;;;;;;9.95;1.70;;;;;;;12.03;73.31;99684.41;6194650;23;20008;-72
2021/05/12 07:13:47;;;;;;;8.52;2.00;;;;;;;12.18;72.41;99685.34;6197065;23;20480;-72
2021/05/12 07:16:13;;;;;;;8.52;2.10;;;;;;;12.28;72.00;99685.19;6197986;23;20015;-74
2021/05/12 07:18:38;;;;;;;10.00;1.85;;;;;;;12.40;71.47;99693.78;6223698;23;20000;-75
2021/05/12 07:21:04;;;;;;;9.85;1.75;;;;;;;12.39;70.80;99692.13;6220230;23;20471;-75
2021/05/12 07:23:29;;;;;;;15.18;1.90;;;;;;;12.39;70.74;99689.41;6224265;23;20008;-75
2021/05/12 07:25:56;;;;;;;10.73;2.30;;;;;;;12.31;69.44;99695.56;6225624;23;20008;-75
2021/05/12 07:28:22;;;;;;;20.40;2.60;;;;;;;12.25;68.59;99696.75;6224081;23;20098;-75
2021/05/12 07:30:48;;;;;;;20.67;2.10;;;;;;;12.22;68.28;99697.31;6221415;23;20389;-75
2021/05/12 07:33:15;;;;;;;13.50;2.35;;;;;;;12.08;68.60;99693.69;6225563;23;20428;-75
2021/05/12 07:35:41;;;;;;;13.07;2.05;;;;;;;11.95;69.08;99695.22;6201897;23;20012;-75
2021/05/12 07:38:07;;;;;;;6.75;1.50;;;;;;;11.90;68.68;99687.84;6251869;23;20012;-73
2021/05/12 07:40:36;;;;;;;15.60;1.98;;;;;;;12.02;68.42;99682.78;6224849;23;20450;-75
2021/05/12 07:43:05;;;;;;;3.97;1.55;;;;;;;12.25;68.73;99685.78;6224262;23;20083;-75
2021/05/12 07:45:30;;;;;;;6.80;1.75;;;;;;;12.50;67.77;99692.00;6223508;23;20091;-74
2021/05/12 07:47:56;;;;;;;5.57;1.40;;;;;;;12.60;66.74;99691.88;6251687;23;20027;-74
2021/05/12 07:50:22;;;;;;;11.63;1.63;;;;;;;12.49;65.77;99691.19;6200566;23;20008;-75
2021/05/12 07:52:47;;;;;;;11.30;1.88;;;;;;;12.36;66.07;99695.47;6223970;23;20032;-74
2021/05/12 07:55:13;;;;;;;15.02;2.20;;;;;;;12.05;65.51;99686.88;6226749;23;20004;-75
2021/05/12 07:57:41;;;;;;;15.65;2.13;;;;;;;11.89;65.76;99699.91;6247144;22;20073;-75
2021/05/12 08:00:08;;;;;;;10.57;1.58;;;;;;;11.85;66.62;99693.38;6218807;23;20016;-73
2021/05/12 08:02:36;;;;;;;7.00;2.17;;;;;;;11.94;67.13;99696.31;6249231;23;20012;-74
2021/05/12 08:05:02;;;;;;;8.07;1.52;;;;;;;12.11;66.80;99695.84;6201934;23;20032;-74
2021/05/12 08:07:27;;;;;;;7.38;1.98;;;;;;;12.33;64.87;99698.81;6197115;23;20008;-75
2021/05/12 08:09:52;;;;;;;8.82;1.90;;;;;;;12.60;64.40;99694.59;6252092;23;20032;-74
2021/05/12 08:12:18;;;;;;;8.23;1.30;;;;;;;12.94;64.11;99690.78;6225768;23;20054;-73
2021/05/12 08:14:46;;;;;;;5.78;1.40;;;;;;;13.32;62.71;99690.69;6224570;23;20015;-74
2021/05/12 08:17:12;;;;;;;5.10;1.35;;;;;;;13.68;62.28;99687.28;6225367;23;20039;-74
2021/05/12 08:19:37;;;;;;;4.43;1.20;;;;;;;14.02;61.43;99690.72;6223954;23;20008;-74
2021/05/12 08:22:07;;;;;;;4.55;1.50;;;;;;;14.26;59.40;99685.78;6216911;23;20016;-74
2021/05/12 08:24:33;;;;;;;8.85;1.83;;;;;;;14.26;55.83;99701.50;6220555;23;20066;-74
2021/05/12 08:27:01;;;;;;;7.45;1.90;;;;;;;14.20;55.95;99708.22;6249847;23;20004;-74
2021/05/12 08:29:27;;;;;;;8.98;1.80;;;;;;;13.99;54.43;99705.91;6224421;23;20020;-74
2021/05/12 08:31:53;;;;;;;3.97;1.38;;;;;;;13.81;55.19;99690.34;6224743;23;20000;-74
2021/05/12 08:34:19;;;;;;;6.57;2.03;;;;;;;13.69;55.31;99699.88;6187034;23;20008;-73
2021/05/12 08:36:44;;;;;;;12.63;1.45;;;;;;;13.54;55.88;99691.97;6224033;23;20362;-73
2021/05/12 08:39:10;;;;;;;3.80;1.27;;;;;;;13.38;56.13;99694.97;6215719;23;20326;-74
2021/05/12 08:41:38;;;;;;;6.82;1.40;;;;;;;13.18;56.81;99695.31;6223705;23;20016;-73
2021/05/12 08:44:10;;;;;;;3.72;1.17;;;;;;;13.01;57.22;99688.47;6240969;23;20064;-74
2021/05/12 08:46:39;;;;;;;3.42;1.23;;;;;;;13.15;57.97;99691.22;6244205;23;20054;-73
2021/05/12 08:49:05;;;;;;;6.68;1.67;;;;;;;13.22;56.40;99685.38;6224046;23;20023;-76
2021/05/12 08:51:31;;;;;;;4.40;1.23;;;;;;;13.30;55.37;99687.41;6224871;23;20039;-76
2021/05/12 08:53:56;;;;;;;3.90;1.40;;;;;;;13.33;54.38;99685.97;6222120;23;20554;-76
2021/05/12 08:56:25;;;;;;;4.63;0.98;;;;;;;13.58;53.83;99687.47;6197582;23;20034;-78
2021/05/12 08:58:53;;;;;;;7.35;1.48;;;;;;;13.78;52.93;99687.09;6226621;23;20004;-77
2021/05/12 09:01:19;;;;;;;4.30;1.23;;;;;;;13.98;53.92;99674.03;6223926;23;20004;-76
2021/05/12 09:03:45;;;;;;;3.92;1.15;;;;;;;14.35;52.83;99682.31;6226039;23;20033;-76
2021/05/12 09:06:11;;;;;;;3.78;1.20;;;;;;;14.56;52.58;99683.50;6251110;23;20007;-77
2021/05/12 09:08:37;;;;;;;6.00;1.05;;;;;;;14.72;51.34;99680.41;6230515;23;20004;-76
2021/05/12 09:11:03;;;;;;;1.73;1.10;;;;;;;14.82;50.06;99686.47;6228096;23;19997;-75
2021/05/12 09:13:36;;;;;;;4.70;0.98;;;;;;;14.83;50.44;99682.63;6201084;23;20115;-75
2021/05/12 09:16:17;;;;;;;3.45;1.30;;;;;;;15.11;50.85;99682.47;6224803;23;20009;-74
2021/05/12 09:18:43;;;;;;;4.35;1.15;;;;;;;15.39;50.46;99698.84;6251587;23;20361;-76
2021/05/12 09:21:08;;;;;;;3.53;1.10;;;;;;;15.61;48.93;99686.09;6249999;23;20076;-76
2021/05/12 09:23:39;;;;;;;13.07;1.30;;;;;;;15.87;46.82;99684.31;6217500;23;20439;-75
2021/05/12 09:26:12;;;;;;;1.75;0.90;;;;;;;16.17;47.14;99690.06;6250609;23;20370;-76
2021/05/12 09:28:41;;;;;;;3.03;1.27;;;;;;;16.44;45.28;99687.31;6222928;23;20024;-77
2021/05/12 09:31:15;;;;;;;4.85;0.77;;;;;;;16.54;44.47;99690.59;6220567;23;20023;-76
2021/05/12 09:33:53;;;;;;;;;;;;;;;;;;;;;
2021/05/12 09:36:29;;;;;;;13.15;1.35;;;;;;;16.98;43.36;99689.78;6252137;23;20073;-77
2021/05/12 09:38:55;;;;;;;4.72;1.08;;;;;;;17.18;43.00;99694.63;6222969;23;20441;-76
2021/05/12 09:41:33;;;;;;;2.63;1.10;;;;;;;17.50;42.43;99689.66;6222640;23;20000;-76
2021/05/12 09:44:00;;;;;;;4.68;1.50;;;;;;;17.89;40.53;99693.25;6218171;23;20082;-76
2021/05/12 09:46:36;;;;;;;3.90;1.17;;;;;;;17.93;37.93;99698.94;6198973;23;20008;-76
2021/05/12 09:49:01;;;;;;;4.13;0.93;;;;;;;17.90;39.81;99696.84;6251218;23;20000;-77
2021/05/12 09:51:31;;;;;;;2.65;1.10;;;;;;;18.22;39.77;99687.03;6224913;23;20051;-76
2021/05/12 09:54:14;;;;;;;7.25;1.15;;;;;;;18.69;40.10;99693.56;6220072;23;20086;-77
2021/05/12 09:56:57;;;;;;;3.70;1.10;;;;;;;18.76;38.12;99694.66;6252004;23;20079;-77
2021/05/12 09:59:24;;;;;;;1.63;1.17;;;;;;;18.44;38.18;99693.41;6222934;23;20004;-76
2021/05/12 10:01:58;;;;;;;7.20;1.48;;;;;;;18.26;39.26;99698.28;6225055;23;20000;-76
2021/05/12 10:04:34;;;;;;;3.53;1.25;;;;;;;18.12;39.25;99690.19;6200652;23;20008;-77
2021/05/12 10:07:01;;;;;;;8.52;2.40;;;;;;;17.95;39.27;99683.63;6221653;23;20014;-77
2021/05/12 10:09:29;;;;;;;4.35;1.38;;;;;;;17.85;39.68;99691.47;6223248;23;20076;-77
2021/05/12 10:12:06;;;;;;;3.15;0.80;;;;;;;18.18;40.46;99686.13;6251999;23;19996;-78
2021/05/12 10:14:34;;;;;;;1.30;0.73;;;;;;;18.22;40.30;99681.50;6226057;23;20019;-77
2021/05/12 10:17:04;;;;;;;4.65;1.00;;;;;;;18.13;40.20;99683.53;6226331;23;20446;-77
2021/05/12 10:19:29;;;;;;;4.85;1.33;;;;;;;17.90;39.85;99675.53;6250753;23;20008;-77
2021/05/12 10:21:59;;;;;;;1.60;0.80;;;;;;;17.63;40.65;99674.81;6200682;23;20038;-77
2021/05/12 10:24:24;;;;;;;4.43;1.75;;;;;;;17.46;39.88;99674.88;6224193;23;20382;-77
2021/05/12 10:26:51;;;;;;;2.42;0.90;;;;;;;17.30;40.27;99680.13;6251090;23;20083;-77
2021/05/12 10:29:19;;;;;;;1.67;0.70;;;;;;;17.16;40.64;99669.28;6249499;23;20359;-77
2021/05/12 10:31:45;;;;;;;2.83;1.15;;;;;;;17.06;40.36;99669.63;6223770;23;20008;-76
2021/05/12 10:34:17;;;;;;;4.43;0.90;;;;;;;17.00;40.69;99670.94;6218380;23;20008;-76
2021/05/12 10:36:42;;;;;;;1.83;0.60;;;;;;;16.80;40.34;99673.19;6222779;23;20464;-76
2021/05/12 10:39:13;;;;;;;4.90;1.33;;;;;;;16.71;40.36;99675.97;6223791;23;20008;-76
2021/05/12 10:41:47;;;;;;;3.72;0.88;;;;;;;16.71;40.84;99680.69;6223652;23;20011;-76
2021/05/12 10:44:21;;;;;;;1.33;0.70;;;;;;;16.69;41.39;99677.41;6249293;23;20107;-77
2021/05/12 10:46:46;;;;;;;8.35;1.25;;;;;;;16.89;41.82;99682.34;6249962;23;20018;-77
2021/05/12 10:49:21;;;;;;;1.70;0.77;;;;;;;17.16;42.21;99683.09;6224290;23;20028;-75
2021/05/12 10:51:47;;;;;;;4.85;1.27;;;;;;;17.41;42.08;99677.81;6252170;23;20019;-76
2021/05/12 10:54:14;;;;;;;3.20;1.40;;;;;;;17.60;41.32;99678.22;6255032;23;20011;-76
2021/05/12 10:56:43;;;;;;;5.30;1.02;;;;;;;17.77;40.64;99671.81;6229469;23;20000;-76
2021/05/12 10:59:10;;;;;;;2.75;0.82;;;;;;;17.89;40.16;99662.81;6255820;23;20339;-77
2021/05/12 11:01:42;;;;;;;3.25;0.57;;;;;;;18.02;39.69;99665.69;6220643;23;20423;-76
2021/05/12 11:04:08;;;;;;;0.93;0.60;;;;;;;18.08;40.37;99665.19;6248208;23;20010;-77
2021/05/12 11:06:34;;;;;;;0.47;0.30;;;;;;;18.30;41.25;99666.81;6245283;23;20007;-76
2021/05/12 11:09:09;;;;;;;2.38;0.93;;;;;;;18.64;41.22;99676.00;6248367;23;20071;-76
2021/05/12 11:11:37;;;;;;;;;;;;;;;18.99;38.65;99670.16;6246420;23;20001;-74
2021/05/12 11:14:21;;;;;;;3.05;0.60;;;;;;;18.84;38.46;99673.56;6247019;23;19981;-75
2021/05/12 11:17:09;;;;;;;4.72;1.08;;;;;;;18.75;38.41;99670.03;6243866;23;20453;-75
2021/05/12 11:19:36;;;;;;;4.38;0.95;;;;;;;18.53;38.27;99668.44;6220733;23;20007;-75
2021/05/12 11:22:46;;;;;;;2.47;0.90;;;;;;;18.40;38.38;99671.16;6216527;23;20031;-73
2021/05/12 11:25:39;;;;;;;3.03;1.25;;;;;;;18.33;38.05;99675.59;6241851;23;20030;-73
2021/05/12 11:33:36;;;;;;;4.85;0.90;;;;;;;21.52;36.24;99666.78;6220927;23;20058;-73
2021/05/12 11:36:21;;;;;;;3.42;1.20;;;;;;;21.48;35.01;99666.69;6220004;23;20004;-72
2021/05/12 11:38:50;;;;;;;2.70;1.10;;;;;;;21.05;35.11;99654.44;6232248;23;20012;-73
2021/05/12 11:41:23;;;;;;;1.80;0.88;;;;;;;20.90;36.21;99648.47;6227393;23;20411;-73
2021/05/12 11:43:56;;;;;;;4.43;1.55;;;;;;;21.55;38.08;99649.38;6256484;23;20067;-72
2021/05/12 11:46:32;;;;;;;10.80;1.30;;;;;;;22.65;35.24;99652.31;6214487;23;20004;-71
2021/05/12 11:49:03;;;;;;;3.92;1.85;;;;;;;23.79;34.73;99661.16;6247970;23;20011;-72
2021/05/12 11:51:43;;;;;;;1.80;1.05;;;;;;;25.01;33.86;99659.25;6246709;23;20000;-72
2021/05/12 11:54:23;;;;;;;8.98;1.02;;;;;;;25.94;31.16;99661.31;6240000;23;20008;-73
2021/05/12 11:56:54;;;;;;;4.13;0.95;;;;;;;27.09;31.11;99650.69;6219296;23;20012;-73
2021/05/12 11:59:23;;;;;;;4.40;0.70;;;;;;;27.96;30.34;99645.13;6217089;23;20536;-73
2021/05/12 12:01:56;;;;;;;3.08;1.05;;;;;;;27.77;25.62;99643.53;6244294;23;20008;-74
2021/05/12 12:04:37;;;;;;;2.67;1.13;;;;;;;27.03;26.34;99645.84;6246018;23;20031;-73
2021/05/12 12:07:04;;;;;;;2.83;0.80;;;;;;;25.76;25.93;99647.19;6199277;23;20078;-72
2021/05/12 12:09:30;;;;;;;1.83;1.15;;;;;;;24.70;27.75;99643.72;6245711;23;20398;-74
2021/05/12 12:11:56;;;;;;;0.88;0.73;;;;;;;24.07;29.22;99637.69;6244806;23;20007;-72
2021/05/12 12:14:35;;;;;;;3.00;1.42;;;;;;;23.35;29.02;99645.69;6238753;23;20123;-73
2021/05/12 12:17:08;;;;;;;4.57;0.88;;;;;;;22.22;30.30;99634.66;6218271;23;19996;-74
2021/05/12 12:19:33;;;;;;;1.67;0.95;;;;;;;21.47;32.13;99630.91;6245477;23;20004;-74
2021/05/12 12:21:59;;;;;;;3.47;1.13;;;;;;;21.52;32.43;99638.97;6216474;23;20011;-74
2021/05/12 12:24:26;;;;;;;2.88;0.85;;;;;;;21.40;32.84;99643.44;6218435;23;20008;-74
2021/05/12 12:27:02;;;;;;;4.38;1.30;;;;;;;21.02;32.43;99636.47;6245367;23;20008;-75
2021/05/12 12:29:30;;;;;;;2.50;1.17;;;;;;;20.46;33.21;99636.47;6236540;23;20020;-74
2021/05/12 12:32:00;;;;;;;1.63;1.08;;;;;;;19.99;33.99;99638.66;6244448;23;20000;-74
2021/05/12 12:34:28;;;;;;;6.32;0.98;;;;;;;19.67;34.44;99634.84;6245200;23;20000;-76
2021/05/12 12:37:12;;;;;;;4.57;0.95;;;;;;;19.33;34.71;99618.31;6241744;23;20000;-72
2021/05/12 12:39:41;;;;;;;1.67;0.90;;;;;;;19.13;35.96;99635.81;6213819;23;20035;-72
2021/05/12 12:42:08;;;;;;;2.83;0.90;;;;;;;18.93;35.87;99626.41;6231896;23;20008;-72
2021/05/12 12:44:41;;;;;;;1.02;0.60;;;;;;;18.94;36.24;99634.38;6213242;23;20018;-72
2021/05/12 12:47:16;;;;;;;9.73;1.13;;;;;;;18.84;36.32;99637.56;6213924;23;20016;-74
2021/05/12 12:49:50;;;;;;;4.03;0.97;;;;;;;18.73;36.20;99628.84;6214855;23;20046;-72
2021/05/12 12:52:33;;;;;;;1.10;0.73;;;;;;;19.24;36.95;99614.00;6243773;23;20213;-72
2021/05/12 12:55:09;;;;;;;1.20;0.63;;;;;;;21.27;36.74;99616.88;6214222;23;20000;-71
2021/05/12 12:57:43;;;;;;;3.22;0.55;;;;;;;23.79;31.62;99622.09;6215058;23;20037;-72
2021/05/12 13:00:22;;;;;;;3.33;1.10;;;;;;;25.66;27.73;99617.13;6241847;23;20006;-72
2021/05/12 13:03:05;;;;;;;1.75;0.88;;;;;;;27.37;27.19;99620.31;6190694;23;20409;-70
2021/05/12 13:05:33;;;;;;;1.20;0.50;;;;;;;29.24;26.26;99631.00;6216314;23;20012;-73
2021/05/12 13:08:16;;;;;;;1.23;0.45;;;;;;;30.77;23.63;99632.72;6246005;23;20012;-74
2021/05/12 13:10:43;;;;;;;0.77;0.40;;;;;;;30.59;21.94;99637.78;6242480;23;20311;-73
2021/05/12 13:13:20;;;;;;;2.13;0.40;;;;;;;30.04;22.86;99622.69;6246087;23;20130;-73
2021/05/12 13:15:45;;;;;;;1.55;0.82;;;;;;;30.89;21.65;99616.44;6234813;23;20093;-74
2021/05/12 13:18:11;;;;;;;4.45;0.65;;;;;;;31.36;19.34;99618.59;6217994;23;20380;-73